Time;durP1;ratioP1;P1;durP2;ratioP2;P2;SDS_P1;SDS_P2;PMS_P1;PMS_P2;Temp;Humidity;BMP_temperature;BMP_pressure;BME280_temperature;BME280_humidity;BME280_pressure;Samples;Min_cycle;Max_cycle;Signal;HPM_P1;HPM_P2
2021/06/11 00:01:47;;;;;;;3.65;3.35;;;18.40;99.90;;;;;;4954542;28;20203;-83
2021/06/11 00:04:13;;;;;;;6.80;3.60;;;18.40;99.90;;;;;;4969802;28;20229;-83
2021/06/11 00:06:40;;;;;;;4.10;3.80;;;18.40;99.90;;;;;;4965579;28;20179;-82
2021/06/11 00:09:07;;;;;;;4.78;4.10;;;18.50;99.90;;;;;;4963040;29;20196;-83
2021/06/11 00:11:34;;;;;;;4.13;3.83;;;18.50;99.90;;;;;;4958013;28;20215;-82
2021/06/11 00:14:01;;;;;;;3.72;3.53;;;18.50;99.90;;;;;;4956112;28;20210;-82
2021/06/11 00:16:29;;;;;;;4.80;4.35;;;18.30;99.90;;;;;;4956380;29;20231;-81
2021/06/11 00:18:55;;;;;;;5.18;4.18;;;18.20;99.90;;;;;;4956098;29;20203;-81
2021/06/11 00:21:22;;;;;;;5.03;4.55;;;18.10;99.90;;;;;;4956563;29;20227;-81
2021/06/11 00:23:48;;;;;;;9.32;4.82;;;18.10;99.90;;;;;;4954367;29;20216;-81
2021/06/11 00:26:15;;;;;;;6.80;5.30;;;18.10;99.90;;;;;;4952457;29;20235;-79
2021/06/11 00:28:42;;;;;;;5.85;5.05;;;18.10;99.90;;;;;;4948984;29;20192;-81
2021/06/11 00:31:08;;;;;;;4.97;4.57;;;18.00;99.90;;;;;;4952746;29;20411;-82
2021/06/11 00:33:36;;;;;;;6.20;4.70;;;18.10;99.90;;;;;;4944646;29;20203;-82
2021/06/11 00:36:03;;;;;;;4.78;4.30;;;18.20;99.90;;;;;;4954885;29;20190;-80
2021/06/11 00:38:31;;;;;;;5.68;5.28;;;18.00;99.90;;;;;;4936267;29;20208;-81
2021/06/11 00:40:57;;;;;;;5.05;4.65;;;17.90;99.90;;;;;;4934789;29;20350;-81
2021/06/11 00:43:24;;;;;;;4.20;3.90;;;17.90;99.90;;;;;;4934234;29;20469;-81
2021/06/11 00:45:51;;;;;;;5.50;4.50;;;17.80;99.90;;;;;;4935522;29;20667;-80
2021/06/11 00:48:17;;;;;;;4.57;4.05;;;17.80;99.90;;;;;;4935673;29;20211;-80
2021/06/11 00:50:45;;;;;;;4.93;4.13;;;17.80;99.90;;;;;;4950268;29;20226;-82
2021/06/11 00:53:13;;;;;;;4.25;3.72;;;17.70;99.90;;;;;;4952604;29;20214;-81
2021/06/11 00:55:44;;;;;;;5.50;4.68;;;17.60;99.90;;;;;;4954250;29;20203;-81
2021/06/11 00:58:11;;;;;;;4.75;3.92;;;17.60;99.90;;;;;;4954241;29;20269;-80
2021/06/11 01:00:38;;;;;;;4.80;4.15;;;17.50;99.90;;;;;;4936263;29;20247;-81
2021/06/11 01:03:05;;;;;;;4.85;3.78;;;17.60;99.90;;;;;;4953885;29;20619;-81
2021/06/11 01:05:32;;;;;;;3.65;3.35;;;17.60;99.90;;;;;;4953574;29;20206;-82
2021/06/11 01:08:03;;;;;;;4.40;3.88;;;17.60;99.90;;;;;;4951405;29;20211;-81
2021/06/11 01:10:31;;;;;;;4.93;3.65;;;17.60;99.90;;;;;;4951220;29;20246;-80
2021/06/11 01:12:58;;;;;;;4.65;3.10;;;17.60;99.90;;;;;;4951964;29;20199;-81
2021/06/11 01:15:25;;;;;;;4.18;3.30;;;17.70;99.90;;;;;;4953310;29;20203;-82
2021/06/11 01:17:53;;;;;;;4.43;3.47;;;17.50;99.90;;;;;;4951101;29;20259;-80
2021/06/11 01:20:21;;;;;;;4.18;3.65;;;17.50;99.90;;;;;;4933762;29;20227;-81
2021/06/11 01:23:07;;;;;;;3.47;3.20;;;17.60;99.90;;;;;;4933648;29;20236;-81
2021/06/11 01:25:38;;;;;;;11.85;4.15;;;17.60;99.90;;;;;;4937139;29;20199;-82
2021/06/11 01:28:07;;;;;;;3.97;3.45;;;17.70;99.90;;;;;;4952864;29;20609;-80
2021/06/11 01:30:34;;;;;;;5.65;3.42;;;17.70;99.90;;;;;;4952702;29;20726;-80
2021/06/11 01:33:03;;;;;;;7.05;4.45;;;17.70;99.90;;;;;;4951787;29;20196;-80
2021/06/11 01:35:40;;;;;;;3.28;3.08;;;17.60;99.90;;;;;;4952834;29;20228;-80
2021/06/11 01:38:10;;;;;;;3.85;3.45;;;17.50;99.90;;;;;;4952493;29;20285;-81
2021/06/11 01:40:37;;;;;;;3.88;3.65;;;17.40;99.90;;;;;;4952444;29;20230;-80
2021/06/11 01:43:06;;;;;;;4.45;4.13;;;17.40;99.90;;;;;;4948171;29;20228;-81
2021/06/11 01:45:33;;;;;;;5.78;3.60;;;17.30;99.90;;;;;;4933742;29;20196;-79
2021/06/11 01:48:00;;;;;;;3.50;3.13;;;17.30;99.90;;;;;;4938979;29;20200;-79
2021/06/11 01:50:31;;;;;;;4.22;3.83;;;17.20;99.90;;;;;;4932647;29;20283;-80
2021/06/11 01:52:59;;;;;;;4.28;3.88;;;17.20;99.90;;;;;;4931735;29;20201;-80
2021/06/11 01:55:27;;;;;;;3.65;3.35;;;17.00;99.90;;;;;;4931588;29;20264;-81
2021/06/11 01:57:55;;;;;;;6.15;4.30;;;16.90;99.90;;;;;;4935709;29;20196;-80
2021/06/11 02:00:24;;;;;;;4.95;3.45;;;16.90;99.90;;;;;;4931488;29;20711;-79
2021/06/11 02:02:52;;;;;;;5.32;4.57;;;17.10;99.90;;;;;;4930577;29;20279;-80
2021/06/11 02:05:19;;;;;;;6.03;4.30;;;17.10;99.90;;;;;;4942830;29;20210;-80
2021/06/11 02:08:01;;;;;;;6.05;4.57;;;17.10;99.90;;;;;;4946766;29;20195;-80
2021/06/11 02:10:28;;;;;;;5.88;4.35;;;16.90;99.90;;;;;;4947768;29;20573;-80
2021/06/11 02:12:55;;;;;;;4.03;3.63;;;16.80;99.90;;;;;;4937203;29;20200;-80
2021/06/11 02:15:24;;;;;;;5.68;4.25;;;16.70;99.90;;;;;;4930374;29;20251;-79
2021/06/11 02:17:52;;;;;;;4.47;3.60;;;16.80;99.90;;;;;;4931568;29;20200;-80
2021/06/11 02:20:22;;;;;;;5.38;4.47;;;16.80;99.90;;;;;;4930538;29;20247;-81
2021/06/11 02:22:49;;;;;;;6.53;3.97;;;16.90;99.90;;;;;;4929957;29;20252;-81
2021/06/11 02:25:17;;;;;;;4.07;3.78;;;16.70;99.90;;;;;;4930955;29;20223;-81
2021/06/11 02:27:44;;;;;;;5.25;3.92;;;16.60;99.90;;;;;;4933820;29;20227;-83
2021/06/11 02:30:14;;;;;;;4.63;4.22;;;16.50;99.90;;;;;;4950131;29;20223;-84
2021/06/11 02:32:42;;;;;;;5.68;3.80;;;16.60;99.90;;;;;;4952918;29;20200;-83
2021/06/11 02:35:11;;;;;;;3.75;3.22;;;16.70;99.90;;;;;;4953733;29;20290;-84
2021/06/11 02:37:37;;;;;;;4.50;4.10;;;16.70;99.90;;;;;;4952136;29;20203;-83
2021/06/11 02:40:06;;;;;;;4.95;4.45;;;16.70;99.90;;;;;;4951744;29;20215;-85
2021/06/11 02:42:33;;;;;;;3.83;3.53;;;16.80;99.90;;;;;;4943859;29;20587;-82
2021/06/11 02:45:04;;;;;;;4.15;3.85;;;16.80;99.90;;;;;;4930945;29;20208;-83
2021/06/11 02:47:38;;;;;;;4.25;3.90;;;16.80;99.90;;;;;;4944526;29;20568;-83
2021/06/11 02:50:10;;;;;;;4.03;3.65;;;16.80;99.90;;;;;;4951661;29;20227;-84
2021/06/11 02:52:41;;;;;;;4.22;3.50;;;16.70;99.90;;;;;;4949092;29;20549;-84
2021/06/11 02:55:10;;;;;;;4.20;3.30;;;16.70;99.90;;;;;;4953154;29;20288;-83
2021/06/11 02:57:47;;;;;;;8.07;3.35;;;16.70;99.90;;;;;;4953080;29;20283;-83
2021/06/11 03:00:14;;;;;;;5.28;3.83;;;16.60;99.90;;;;;;4965451;23;20235;-78
2021/06/11 03:02:45;;;;;;;4.78;3.65;;;16.50;99.90;;;;;;4951188;29;20279;-78
2021/06/11 03:05:16;;;;;;;3.97;3.58;;;16.60;99.90;;;;;;4949593;29;20207;-78
2021/06/11 03:07:45;;;;;;;4.28;3.83;;;16.50;99.90;;;;;;4948569;29;20215;-78
2021/06/11 03:10:13;;;;;;;4.22;3.83;;;16.60;99.90;;;;;;4948179;29;20235;-78
2021/06/11 03:12:42;;;;;;;5.18;4.68;;;16.50;99.90;;;;;;4944642;29;20207;-78
2021/06/11 03:15:10;;;;;;;4.13;3.83;;;16.60;99.90;;;;;;4945223;29;20203;-78
2021/06/11 03:17:43;;;;;;;4.80;4.05;;;16.50;99.90;;;;;;4945800;29;20253;-79
2021/06/11 03:20:16;;;;;;;4.18;3.78;;;16.50;99.90;;;;;;4944529;29;20219;-78
2021/06/11 03:22:51;;;;;;;4.57;4.13;;;16.50;99.90;;;;;;4944360;29;20211;-78
2021/06/11 03:25:22;;;;;;;5.15;4.47;;;16.40;99.90;;;;;;4936655;29;20206;-78
2021/06/11 03:27:54;;;;;;;7.82;4.35;;;16.40;99.90;;;;;;4932797;29;20203;-78
2021/06/11 03:30:24;;;;;;;4.28;3.75;;;16.30;99.90;;;;;;4929721;29;20626;-78
2021/06/11 03:32:54;;;;;;;4.93;4.10;;;16.40;99.90;;;;;;4929147;29;20232;-78
2021/06/11 03:35:28;;;;;;;4.70;4.20;;;16.50;99.90;;;;;;4927711;29;20679;-78
2021/06/11 03:37:57;;;;;;;4.68;4.28;;;16.50;99.90;;;;;;4925683;29;20203;-78
2021/06/11 03:40:28;;;;;;;5.28;4.15;;;16.40;99.90;;;;;;4924393;29;20252;-78
2021/06/11 03:42:55;;;;;;;4.35;3.35;;;16.40;99.90;;;;;;4926984;29;20355;-78
2021/06/11 03:45:24;;;;;;;4.50;3.63;;;16.50;99.90;;;;;;4927600;29;20228;-78
2021/06/11 03:47:52;;;;;;;3.35;3.15;;;16.50;99.90;;;;;;4926328;29;20208;-78
2021/06/11 03:50:20;;;;;;;4.43;4.03;;;16.50;99.90;;;;;;4928113;29;20220;-78
2021/06/11 03:52:49;;;;;;;3.92;3.63;;;16.50;99.90;;;;;;4919057;29;20191;-78
2021/06/11 03:55:19;;;;;;;5.53;4.43;;;16.60;99.90;;;;;;4945479;29;20227;-79
2021/06/11 03:57:51;;;;;;;6.30;4.25;;;16.60;99.90;;;;;;4933129;29;20580;-80
2021/06/11 04:00:19;;;;;;;4.45;4.05;;;16.60;99.90;;;;;;4931371;29;20220;-81
2021/06/11 04:02:46;;;;;;;4.75;3.92;;;16.60;99.90;;;;;;4932192;29;20230;-80
2021/06/11 04:05:15;;;;;;;4.68;4.28;;;16.70;99.90;;;;;;4933283;29;20200;-81
2021/06/11 04:07:46;;;;;;;6.10;4.40;;;16.70;99.90;;;;;;4932669;29;20208;-82
2021/06/11 04:10:20;;;;;;;15.85;9.25;;;16.80;99.90;;;;;;4932625;29;20614;-80
2021/06/11 04:12:52;;;;;;;7.30;6.47;;;16.80;99.90;;;;;;4933418;29;20196;-80
2021/06/11 04:15:19;;;;;;;16.35;14.73;;;16.90;99.90;;;;;;4952041;29;20232;-80
2021/06/11 04:17:50;;;;;;;7.80;5.20;;;16.90;99.90;;;;;;4950885;29;20382;-80
2021/06/11 04:20:22;;;;;;;6.07;5.22;;;16.90;99.90;;;;;;4952161;29;20282;-80
2021/06/11 04:22:50;;;;;;;6.20;4.15;;;17.00;99.90;;;;;;4950755;29;20255;-80
2021/06/11 04:25:19;;;;;;;7.57;4.65;;;17.10;99.90;;;;;;4933237;29;20271;-81
2021/06/11 04:27:49;;;;;;;6.45;5.40;;;17.20;99.90;;;;;;4933599;29;20208;-81
2021/06/11 04:30:17;;;;;;;5.03;4.47;;;17.20;99.90;;;;;;4916027;29;20223;-80
2021/06/11 04:32:44;;;;;;;8.80;7.60;;;17.10;99.90;;;;;;4933357;29;20229;-80
2021/06/11 04:35:11;;;;;;;5.55;5.00;;;17.00;99.90;;;;;;4932679;29;20698;-80
2021/06/11 04:37:38;;;;;;;5.13;4.45;;;17.00;99.90;;;;;;4935906;29;20188;-80
2021/06/11 04:40:06;;;;;;;5.65;5.15;;;16.90;99.90;;;;;;4947598;29;20222;-77
2021/06/11 04:42:35;;;;;;;6.88;6.13;;;17.00;99.90;;;;;;4940968;29;20220;-77
2021/06/11 04:45:02;;;;;;;6.45;5.85;;;17.40;99.90;;;;;;4942525;29;20203;-78
2021/06/11 04:47:29;;;;;;;7.53;6.60;;;17.50;99.90;;;;;;4927057;29;20199;-78
2021/06/11 04:49:56;;;;;;;6.35;5.85;;;17.50;99.90;;;;;;4946967;29;20211;-78
2021/06/11 04:52:23;;;;;;;8.10;5.72;;;17.50;99.90;;;;;;4945804;29;20199;-78
2021/06/11 04:54:51;;;;;;;6.53;5.70;;;17.50;99.90;;;;;;4947992;29;20471;-78
2021/06/11 04:57:17;;;;;;;6.55;6.03;;;17.30;99.90;;;;;;4946769;29;20199;-78
2021/06/11 04:59:45;;;;;;;6.22;5.68;;;17.40;99.90;;;;;;4943483;29;20666;-78
2021/06/11 05:02:12;;;;;;;6.60;6.10;;;17.70;99.90;;;;;;4945549;29;20223;-79
2021/06/11 05:04:38;;;;;;;7.68;6.95;;;17.90;99.90;;;;;;4941470;29;20621;-78
2021/06/11 05:07:05;;;;;;;7.38;5.07;;;17.90;99.90;;;;;;4927717;29;20204;-79
2021/06/11 05:09:31;;;;;;;6.53;5.78;;;17.90;99.90;;;;;;4928306;29;20215;-79
2021/06/11 05:11:58;;;;;;;7.32;6.20;;;18.00;99.90;;;;;;4938167;29;20708;-78
2021/06/11 05:14:25;;;;;;;7.30;6.60;;;18.10;99.90;;;;;;4947680;29;20219;-79
2021/06/11 05:16:53;;;;;;;9.95;6.45;;;18.30;99.90;;;;;;4942528;29;20247;-79
2021/06/11 05:19:19;;;;;;;6.90;6.20;;;18.30;99.90;;;;;;4930007;29;20200;-80
2021/06/11 05:21:46;;;;;;;7.25;5.32;;;18.30;99.90;;;;;;4929920;29;20231;-81
2021/06/11 05:24:12;;;;;;;6.55;5.95;;;18.20;99.90;;;;;;4944511;29;20254;-79
2021/06/11 05:26:39;;;;;;;6.15;5.65;;;18.00;99.90;;;;;;4950984;29;20211;-79
2021/06/11 05:29:05;;;;;;;7.70;6.60;;;18.00;99.90;;;;;;4949650;29;20195;-80
2021/06/11 05:31:32;;;;;;;8.48;6.35;;;18.00;99.90;;;;;;4941415;29;20745;-81
2021/06/11 05:33:59;;;;;;;6.60;6.10;;;18.00;99.90;;;;;;4948120;29;20195;-79
2021/06/11 05:36:26;;;;;;;6.97;6.20;;;18.00;99.90;;;;;;4948468;29;20290;-78
2021/06/11 05:38:52;;;;;;;6.78;6.18;;;18.20;99.90;;;;;;4947228;29;20203;-80
2021/06/11 05:41:19;;;;;;;7.25;6.57;;;18.30;99.90;;;;;;4947741;29;20228;-79
2021/06/11 05:43:46;;;;;;;7.07;6.32;;;18.50;99.90;;;;;;4964493;28;20234;-79
2021/06/11 05:46:13;;;;;;;5.90;5.28;;;18.60;99.90;;;;;;4948648;29;20210;-80
2021/06/11 05:48:41;;;;;;;6.55;5.80;;;18.60;99.90;;;;;;4940319;29;20212;-80
2021/06/11 05:51:09;;;;;;;5.60;4.93;;;18.60;99.90;;;;;;4944924;29;20274;-80
2021/06/11 05:53:36;;;;;;;7.55;5.82;;;18.50;99.90;;;;;;4947375;29;20196;-79
2021/06/11 05:56:02;;;;;;;6.75;5.35;;;18.40;99.90;;;;;;4946242;29;20211;-79
2021/06/11 05:58:29;;;;;;;5.65;5.15;;;18.50;99.90;;;;;;4935845;29;20199;-79
2021/06/11 06:00:55;;;;;;;5.72;5.00;;;18.70;99.90;;;;;;4955187;28;20314;-79
2021/06/11 06:03:22;;;;;;;5.53;5.13;;;18.60;99.90;;;;;;4938771;29;20215;-78
2021/06/11 06:05:49;;;;;;;6.03;5.50;;;18.50;99.90;;;;;;4941138;29;20310;-80
2021/06/11 06:08:17;;;;;;;6.60;5.80;;;18.80;99.90;;;;;;4932641;29;20204;-78
2021/06/11 06:10:44;;;;;;;6.60;6.10;;;18.70;99.90;;;;;;4945558;29;20222;-79
2021/06/11 06:13:11;;;;;;;7.68;5.45;;;18.70;99.90;;;;;;4949833;29;20195;-79
2021/06/11 06:15:37;;;;;;;6.10;5.60;;;18.80;99.90;;;;;;4946868;29;20211;-79
2021/06/11 06:18:04;;;;;;;6.93;5.75;;;19.10;99.90;;;;;;4942936;29;20916;-79
2021/06/11 06:20:31;;;;;;;6.85;6.00;;;19.40;99.90;;;;;;4951422;29;20757;-79
2021/06/11 06:22:57;;;;;;;6.40;5.90;;;19.40;99.90;;;;;;4940909;29;20219;-79
2021/06/11 06:25:25;;;;;;;6.45;5.65;;;19.40;99.90;;;;;;4943386;29;20207;-79
2021/06/11 06:27:52;;;;;;;9.68;5.57;;;19.70;99.90;;;;;;4928642;29;20224;-79
2021/06/11 06:30:19;;;;;;;8.90;5.45;;;19.90;99.90;;;;;;4936289;29;20288;-79
2021/06/11 06:32:45;;;;;;;7.90;6.40;;;20.00;99.90;;;;;;4913661;29;20204;-80
2021/06/11 06:35:13;;;;;;;6.25;5.75;;;20.40;99.90;;;;;;4946335;29;20202;-80
2021/06/11 06:37:39;;;;;;;6.63;5.25;;;20.70;99.90;;;;;;4952346;29;20248;-80
2021/06/11 06:40:07;;;;;;;5.82;5.22;;;20.80;99.90;;;;;;4946847;29;20207;-80
2021/06/11 06:42:36;;;;;;;5.65;5.18;;;20.80;99.90;;;;;;4947749;29;20306;-79
2021/06/11 06:45:03;;;;;;;7.95;6.05;;;20.80;99.90;;;;;;4951803;29;20208;-80
2021/06/11 06:47:30;;;;;;;6.57;5.97;;;20.90;99.90;;;;;;4935237;29;20224;-79
2021/06/11 06:49:58;;;;;;;6.97;5.53;;;21.10;99.90;;;;;;4939659;29;20344;-79
2021/06/11 06:52:25;;;;;;;6.47;5.88;;;21.20;99.90;;;;;;4939278;29;20222;-79
2021/06/11 06:54:51;;;;;;;5.95;5.38;;;21.50;99.90;;;;;;4945605;29;20267;-79
2021/06/11 06:57:22;;;;;;;6.97;4.85;;;21.50;99.90;;;;;;4950576;29;20199;-79
2021/06/11 06:59:50;;;;;;;5.65;5.10;;;21.40;99.90;;;;;;4953478;29;20213;-79
2021/06/11 07:02:16;;;;;;;5.50;5.00;;;21.30;99.90;;;;;;4955357;29;20210;-78
2021/06/11 07:04:43;;;;;;;5.70;5.18;;;21.10;99.90;;;;;;4949049;29;20199;-78
2021/06/11 07:07:13;;;;;;;5.95;5.35;;;21.20;99.90;;;;;;4958287;28;20200;-78
2021/06/11 07:09:39;;;;;;;5.43;4.93;;;21.50;99.90;;;;;;4955014;28;20208;-79
2021/06/11 07:12:06;;;;;;;5.45;4.95;;;21.70;99.90;;;;;;4957246;29;20215;-79
2021/06/11 07:14:33;;;;;;;5.10;4.70;;;21.60;99.90;;;;;;4955521;29;20222;-79
2021/06/11 07:17:01;;;;;;;7.78;5.18;;;21.60;99.90;;;;;;4952654;29;20215;-79
2021/06/11 07:19:27;;;;;;;3.92;3.63;;;21.80;99.90;;;;;;4951691;29;20195;-79
2021/06/11 07:21:54;;;;;;;5.40;4.43;;;22.10;99.90;;;;;;4952766;28;20299;-78
2021/06/11 07:24:21;;;;;;;4.50;4.03;;;22.50;99.90;;;;;;4951516;29;20228;-81
2021/06/11 07:26:47;;;;;;;4.22;3.92;;;22.80;99.90;;;;;;4933126;29;20212;-87
2021/06/11 07:29:14;;;;;;;4.25;3.95;;;22.90;99.90;;;;;;4951960;29;20194;-85
2021/06/11 07:31:44;;;;;;;6.75;4.10;;;23.10;99.90;;;;;;4957858;29;20230;-84
2021/06/11 07:34:12;;;;;;;4.45;3.53;;;23.20;99.90;;;;;;4953846;29;20207;-86
2021/06/11 07:36:38;;;;;;;4.72;3.53;;;23.20;99.90;;;;;;4964631;29;20235;-86
2021/06/11 07:39:05;;;;;;;7.85;4.10;;;23.10;99.90;;;;;;4955557;29;20231;-84
2021/06/11 07:41:31;;;;;;;8.65;4.72;;;23.30;99.90;;;;;;4956573;29;20207;-84
2021/06/11 07:43:58;;;;;;;4.43;3.83;;;23.60;99.90;;;;;;4954314;28;20227;-84
2021/06/11 07:46:24;;;;;;;5.15;3.80;;;23.70;99.90;;;;;;4943679;29;20211;-84
2021/06/11 07:48:51;;;;;;;3.50;3.30;;;23.70;99.90;;;;;;4948394;29;20201;-85
2021/06/11 07:51:19;;;;;;;6.22;3.67;;;23.70;99.90;;;;;;4927027;29;20717;-85
2021/06/11 07:53:46;;;;;;;3.38;3.17;;;23.90;99.90;;;;;;4944275;28;20207;-85
2021/06/11 07:56:12;;;;;;;4.47;4.03;;;24.00;99.90;;;;;;4930400;29;20200;-86
2021/06/11 07:58:39;;;;;;;5.43;4.93;;;24.10;99.90;;;;;;4941260;29;20199;-84
2021/06/11 08:01:05;;;;;;;5.25;4.75;;;24.10;99.90;;;;;;4943778;28;20234;-85
2021/06/11 08:03:32;;;;;;;5.10;4.15;;;24.10;99.90;;;;;;4941213;29;20224;-85
2021/06/11 08:05:59;;;;;;;5.25;4.85;;;24.20;99.90;;;;;;4950156;28;20218;-86
2021/06/11 08:08:26;;;;;;;5.60;4.20;;;24.10;99.90;;;;;;4934455;29;20215;-85
2021/06/11 08:10:54;;;;;;;5.75;3.90;;;24.10;99.90;;;;;;4942054;29;20196;-85
2021/06/11 08:13:21;;;;;;;7.63;4.72;;;24.20;99.90;;;;;;4941878;28;20211;-86
2021/06/11 08:15:48;;;;;;;9.85;4.47;;;24.30;99.90;;;;;;4944297;29;20196;-85
2021/06/11 08:18:14;;;;;;;6.38;4.30;;;24.50;99.90;;;;;;4939821;29;20206;-84
2021/06/11 08:20:41;;;;;;;4.65;4.25;;;24.60;99.90;;;;;;4963629;28;20223;-84
2021/06/11 08:23:08;;;;;;;8.07;5.57;;;24.60;99.90;;;;;;4978288;29;20222;-84
2021/06/11 08:25:36;;;;;;;4.72;4.30;;;24.60;99.90;;;;;;4969747;28;20207;-85
2021/06/11 08:28:03;;;;;;;5.53;4.65;;;24.70;99.90;;;;;;4947209;29;20219;-84
2021/06/11 08:30:30;;;;;;;6.32;4.18;;;24.90;99.90;;;;;;4953601;29;20246;-86
2021/06/11 08:32:58;;;;;;;5.28;4.75;;;25.10;99.90;;;;;;4938559;29;20195;-86
2021/06/11 08:35:25;;;;;;;5.47;4.45;;;25.40;99.90;;;;;;4941310;29;20224;-86
2021/06/11 08:37:51;;;;;;;5.30;4.47;;;25.50;99.90;;;;;;4947939;29;20234;-83
2021/06/11 08:40:18;;;;;;;6.05;5.50;;;25.50;99.90;;;;;;4929602;29;20231;-83
2021/06/11 08:42:47;;;;;;;8.20;5.53;;;25.40;99.90;;;;;;4941261;29;20223;-84
2021/06/11 08:45:15;;;;;;;5.63;5.10;;;25.50;99.90;;;;;;4937246;29;20203;-85
2021/06/11 08:47:47;;;;;;;5.18;4.63;;;25.50;99.90;;;;;;4945400;29;20203;-85
2021/06/11 08:50:15;;;;;;;6.55;4.72;;;25.60;99.90;;;;;;4964415;28;20228;-85
2021/06/11 08:52:42;;;;;;;5.68;5.13;;;25.70;99.90;;;;;;4950174;29;20520;-85
2021/06/11 08:55:09;;;;;;;6.28;4.63;;;25.60;99.90;;;;;;4945375;28;20215;-85
2021/06/11 08:57:36;;;;;;;7.55;4.50;;;25.80;99.90;;;;;;4934752;29;20227;-85
2021/06/11 09:00:10;;;;;;;6.47;5.30;;;25.90;99.90;;;;;;4936791;28;20206;-82
2021/06/11 09:03:09;;;;;;;4.80;4.47;;;26.00;99.90;;;;;;4944583;29;20223;-85
2021/06/11 09:05:36;;;;;;;5.25;4.85;;;26.30;99.90;;;;;;4947867;29;20200;-84
2021/06/11 09:08:14;;;;;;;5.60;5.00;;;26.10;99.90;;;;;;4947252;29;20208;-84
2021/06/11 09:10:41;;;;;;;5.05;4.28;;;25.90;99.90;;;;;;4932628;29;20230;-84
2021/06/11 09:13:08;;;;;;;5.97;5.40;;;25.80;99.90;;;;;;4938492;29;20670;-84
2021/06/11 09:15:35;;;;;;;6.90;5.18;;;25.70;99.90;;;;;;4940088;29;20216;-81
2021/06/11 09:18:17;;;;;;;4.65;4.25;;;25.70;99.90;;;;;;4945153;29;20211;-85
2021/06/11 09:20:44;;;;;;;6.40;4.28;;;25.90;99.90;;;;;;4943783;29;20228;-86
2021/06/11 09:23:10;;;;;;;6.38;5.90;;;26.10;99.90;;;;;;4948218;29;20230;-82
2021/06/11 09:25:40;;;;;;;5.47;5.05;;;26.30;99.90;;;;;;4927933;29;21590;-80
2021/06/11 09:28:09;;;;;;;10.82;4.60;;;26.20;99.90;;;;;;4924386;29;20228;-80
2021/06/11 09:30:50;;;;;;;5.85;5.15;;;26.20;99.90;;;;;;4925204;29;20232;-80
2021/06/11 09:33:42;;;;;;;5.00;4.50;;;26.30;99.90;;;;;;4940853;29;20667;-80
2021/06/11 09:36:28;;;;;;;5.78;5.28;;;26.20;99.90;;;;;;4935074;29;20195;-81
2021/06/11 09:39:13;;;;;;;5.85;5.35;;;26.30;99.90;;;;;;4936118;29;20195;-80
2021/06/11 09:42:04;;;;;;;6.20;5.60;;;26.60;99.90;;;;;;4923808;29;20232;-80
2021/06/11 09:44:31;;;;;;;7.63;5.82;;;26.50;99.90;;;;;;4930293;29;20224;-80
2021/06/11 09:46:59;;;;;;;7.07;5.93;;;26.60;99.90;;;;;;4934555;29;20259;-80
2021/06/11 09:49:28;;;;;;;9.45;5.22;;;26.60;99.90;;;;;;4931261;29;20199;-80
2021/06/11 09:52:05;;;;;;;6.65;5.57;;;26.20;99.90;;;;;;4937297;29;20219;-80
2021/06/11 09:54:32;;;;;;;7.72;6.90;;;26.10;99.90;;;;;;4941266;29;20254;-81
2021/06/11 09:57:17;;;;;;;5.88;5.38;;;26.40;99.90;;;;;;4932330;29;20215;-80
2021/06/11 09:59:44;;;;;;;6.10;5.53;;;26.60;99.90;;;;;;4940769;29;20207;-81
2021/06/11 10:02:16;;;;;;;7.72;7.00;;;26.70;99.90;;;;;;4946516;28;20223;-83
2021/06/11 10:04:45;;;;;;;9.65;7.43;;;26.40;99.90;;;;;;4927680;29;20291;-81
2021/06/11 10:07:13;;;;;;;9.32;8.52;;;26.50;99.90;;;;;;4935571;29;20250;-81
2021/06/11 10:09:41;;;;;;;8.38;7.57;;;26.60;99.90;;;;;;4935943;29;20239;-81
2021/06/11 10:12:08;;;;;;;7.88;7.13;;;26.50;99.90;;;;;;4920640;29;20251;-81
2021/06/11 10:14:35;;;;;;;10.15;7.38;;;26.30;99.90;;;;;;4926925;29;20228;-80
2021/06/11 10:17:02;;;;;;;10.68;7.63;;;26.40;99.90;;;;;;4937659;29;20199;-81
2021/06/11 10:19:30;;;;;;;11.40;9.00;;;26.50;99.90;;;;;;4921756;29;20201;-80
2021/06/11 10:21:57;;;;;;;8.38;7.53;;;26.30;99.90;;;;;;4946255;29;20243;-80
2021/06/11 10:24:24;;;;;;;9.27;8.38;;;26.20;99.90;;;;;;4932898;29;20258;-81
2021/06/11 10:26:51;;;;;;;8.85;7.78;;;26.40;99.90;;;;;;4940886;29;20207;-82
2021/06/11 10:29:20;;;;;;;8.63;7.72;;;26.40;99.90;;;;;;4933396;29;20278;-81
2021/06/11 10:31:48;;;;;;;9.38;8.57;;;26.60;99.90;;;;;;4943266;29;20223;-82
2021/06/11 10:34:14;;;;;;;10.20;8.15;;;26.60;99.90;;;;;;4931384;29;20196;-82
2021/06/11 10:36:43;;;;;;;7.55;6.85;;;26.60;99.90;;;;;;4939767;29;20190;-82
2021/06/11 10:39:27;;;;;;;8.60;7.80;;;27.00;99.90;;;;;;4949490;28;20209;-83
2021/06/11 10:41:57;;;;;;;10.48;8.20;;;26.90;99.90;;;;;;4941169;28;20227;-82
2021/06/11 10:44:37;;;;;;;9.55;8.43;;;26.50;99.90;;;;;;4943047;29;20246;-83
2021/06/11 10:47:26;;;;;;;7.30;6.60;;;26.60;99.90;;;;;;4944393;29;20206;-81
2021/06/11 10:50:16;;;;;;;7.45;6.88;;;27.00;99.90;;;;;;4962451;28;20199;-79
2021/06/11 10:52:48;;;;;;;7.55;6.43;;;27.00;99.90;;;;;;4946903;28;20214;-79
2021/06/11 10:55:49;;;;;;;7.70;6.65;;;27.00;99.90;;;;;;4944752;29;20232;-78
2021/06/11 10:58:20;;;;;;;6.55;5.93;;;27.20;99.90;;;;;;4921270;29;20208;-78
2021/06/11 11:00:47;;;;;;;5.65;5.15;;;27.40;99.90;;;;;;4919292;29;20219;-79
2021/06/11 11:03:31;;;;;;;7.45;6.43;;;27.30;99.90;;;;;;4925551;29;20317;-78
2021/06/11 11:05:58;;;;;;;7.20;6.50;;;27.10;99.90;;;;;;4934470;28;20199;-78
2021/06/11 11:08:52;;;;;;;6.70;5.13;;;27.10;99.90;;;;;;4939354;29;20223;-78
2021/06/11 11:11:41;;;;;;;9.15;6.47;;;27.20;99.90;;;;;;4916207;29;20226;-78
2021/06/11 11:14:45;;;;;;;7.00;6.35;;;27.30;99.90;;;;;;4932382;29;20330;-78
2021/06/11 11:17:13;;;;;;;6.05;5.45;;;27.40;99.90;;;;;;4929801;29;20232;-77
2021/06/11 11:19:54;;;;;;;7.32;5.25;;;27.40;99.90;;;;;;4929838;29;20526;-78
2021/06/11 11:22:25;;;;;;;7.95;5.90;;;27.40;99.90;;;;;;4932441;29;20207;-78
2021/06/11 11:24:54;;;;;;;6.07;5.53;;;27.50;99.90;;;;;;4928253;29;20220;-78
2021/06/11 11:27:21;;;;;;;6.10;5.50;;;27.30;99.90;;;;;;4927103;29;20321;-78
2021/06/11 11:29:48;;;;;;;9.05;6.05;;;27.30;99.90;;;;;;4930973;29;20223;-81
2021/06/11 11:32:14;;;;;;;7.95;5.05;;;27.00;99.90;;;;;;4937436;29;20191;-82
2021/06/11 11:34:41;;;;;;;9.40;7.00;;;27.10;99.90;;;;;;4938287;29;20220;-80
2021/06/11 11:37:08;;;;;;;5.53;5.03;;;27.50;99.90;;;;;;4936706;29;20191;-82
2021/06/11 11:39:35;;;;;;;6.53;5.93;;;27.60;99.90;;;;;;4937438;29;20207;-82
2021/06/11 11:42:03;;;;;;;5.50;4.55;;;27.50;99.90;;;;;;4937970;29;20243;-81
2021/06/11 11:44:30;;;;;;;7.10;5.75;;;27.70;99.90;;;;;;4940847;29;20227;-81
2021/06/11 11:46:57;;;;;;;5.10;4.18;;;28.00;99.90;;;;;;4937547;29;20512;-81
2021/06/11 11:49:23;;;;;;;5.53;5.03;;;28.20;99.90;;;;;;4943164;29;20212;-83
2021/06/11 11:51:50;;;;;;;6.63;5.65;;;28.20;99.90;;;;;;4940705;29;20212;-80
2021/06/11 11:54:17;;;;;;;9.43;4.85;;;28.00;99.90;;;;;;4935970;29;20196;-82
2021/06/11 11:56:45;;;;;;;5.68;5.18;;;27.40;99.90;;;;;;4937262;29;20199;-82
2021/06/11 11:59:13;;;;;;;5.72;5.10;;;27.30;99.90;;;;;;4938298;29;20263;-81
2021/06/11 12:01:42;;;;;;;7.55;6.65;;;27.30;99.90;;;;;;4940185;29;20243;-84
2021/06/11 12:04:09;;;;;;;6.18;4.35;;;27.60;99.90;;;;;;4939300;29;20218;-81
2021/06/11 12:06:36;;;;;;;5.43;4.10;;;27.80;99.90;;;;;;4935346;29;20200;-80
2021/06/11 12:09:04;;;;;;;5.18;4.70;;;27.80;99.90;;;;;;4928326;29;20207;-82
2021/06/11 12:11:30;;;;;;;4.82;4.13;;;28.10;99.90;;;;;;4934609;29;20219;-81
2021/06/11 12:13:57;;;;;;;6.20;4.55;;;27.80;99.90;;;;;;4933450;29;20204;-81
2021/06/11 12:16:25;;;;;;;4.30;4.00;;;27.90;99.90;;;;;;4946960;29;20233;-81
2021/06/11 12:18:51;;;;;;;4.15;3.75;;;27.90;99.90;;;;;;4937421;29;20666;-81
2021/06/11 12:21:18;;;;;;;4.68;4.28;;;28.00;99.90;;;;;;4927254;29;20279;-82
2021/06/11 12:23:44;;;;;;;3.88;3.58;;;28.00;99.90;;;;;;4938785;29;20223;-81
2021/06/11 12:26:11;;;;;;;3.28;2.97;;;28.30;99.90;;;;;;4935174;29;20196;-81
2021/06/11 12:28:37;;;;;;;3.72;2.90;;;28.70;99.90;;;;;;4939989;29;20211;-81
2021/06/11 12:31:04;;;;;;;5.57;3.13;;;28.80;99.90;;;;;;4931111;29;20228;-81
2021/06/11 12:33:32;;;;;;;4.30;3.90;;;29.00;99.90;;;;;;4925581;29;20200;-81
2021/06/11 12:35:59;;;;;;;2.85;2.65;;;29.00;99.90;;;;;;4925749;29;20200;-80
2021/06/11 12:38:26;;;;;;;4.78;3.67;;;28.80;99.90;;;;;;4926963;29;20211;-81
2021/06/11 12:40:55;;;;;;;4.75;3.92;;;29.10;99.90;;;;;;4960127;29;20238;-80
2021/06/11 12:43:29;;;;;;;4.60;2.78;;;29.10;99.90;;;;;;4965262;28;20215;-80
2021/06/11 12:45:55;;;;;;;4.65;3.22;;;29.30;99.90;;;;;;4936317;29;20219;-80
2021/06/11 12:48:22;;;;;;;4.53;3.50;;;29.30;99.90;;;;;;4940538;29;20202;-80
2021/06/11 12:50:50;;;;;;;3.55;3.25;;;29.40;99.90;;;;;;4939360;29;20245;-81
2021/06/11 12:53:16;;;;;;;2.53;2.33;;;29.40;99.90;;;;;;4935974;29;20196;-81
2021/06/11 12:55:48;;;;;;;8.85;3.55;;;29.60;99.90;;;;;;4932951;29;20200;-81